Time;durP1;ratioP1;P1;durP2;ratioP2;P2;SDS_P1;SDS_P2;PMS_P1;PMS_P2;Temp;Humidity;BMP_temperature;BMP_pressure;BME280_temperature;BME280_humidity;BME280_pressure;Samples;Min_cycle;Max_cycle;Signal;HPM_P1;HPM_P2
2023/07/16 00:00:19;;;;;;;2.25;1.10;;;;;;;16.32;100.00;93034.84;2548273;23;20475;-80
2023/07/16 00:01:24;;;;;;;2.28;1.00;;;;;;;16.42;100.00;93030.19;2560519;23;20071;-80
2023/07/16 00:02:33;;;;;;;2.20;1.00;;;;;;;16.59;100.00;93035.97;2569731;23;20012;-81
2023/07/16 00:03:42;;;;;;;2.10;1.00;;;;;;;16.51;100.00;93034.81;2570199;23;20005;-81
2023/07/16 00:04:50;;;;;;;2.03;1.10;;;;;;;16.44;100.00;93040.53;2570648;23;20071;-80
2023/07/16 00:05:55;;;;;;;1.77;0.90;;;;;;;16.32;100.00;93034.84;2570628;23;20028;-80
2023/07/16 00:07:03;;;;;;;0.80;0.80;;;;;;;16.29;100.00;93033.06;2568657;23;20027;-82
2023/07/16 00:08:06;;;;;;;1.00;0.90;;;;;;;16.10;100.00;93039.69;2558800;23;20004;-82
2023/07/16 00:09:13;;;;;;;0.90;0.82;;;;;;;16.24;100.00;93041.78;2569267;23;20008;-82
2023/07/16 00:10:20;;;;;;;3.10;1.17;;;;;;;16.19;100.00;93047.75;2556899;23;20467;-80
2023/07/16 00:11:29;;;;;;;2.20;0.90;;;;;;;16.08;100.00;93034.75;2546588;23;20033;-80
2023/07/16 00:12:39;;;;;;;2.00;0.90;;;;;;;16.10;100.00;93048.53;2547392;23;20001;-81
2023/07/16 00:13:46;;;;;;;2.85;1.02;;;;;;;15.99;100.00;93048.25;2570407;23;20399;-79
2023/07/16 00:14:51;;;;;;;1.05;0.95;;;;;;;16.16;100.00;93050.66;2568001;23;20469;-81
2023/07/16 00:15:57;;;;;;;1.65;1.33;;;;;;;15.97;100.00;93047.22;2557034;23;20431;-79
2023/07/16 00:17:01;;;;;;;1.40;1.20;;;;;;;15.80;100.00;93060.25;2544755;23;20080;-79
2023/07/16 00:18:06;;;;;;;1.70;0.95;;;;;;;15.94;100.00;93048.13;2569187;23;19993;-80
2023/07/16 00:19:16;;;;;;;1.10;1.00;;;;;;;15.94;100.00;93040.78;2580782;23;20008;-79
2023/07/16 00:20:27;;;;;;;1.75;1.15;;;;;;;15.85;100.00;93038.84;2570062;23;20079;-79
2023/07/16 00:21:34;;;;;;;5.35;1.30;;;;;;;15.71;100.00;93027.91;2570662;23;20402;-78
2023/07/16 00:22:42;;;;;;;3.05;1.10;;;;;;;15.64;100.00;93028.22;2569561;23;20067;-80
2023/07/16 00:23:48;;;;;;;1.48;1.30;;;;;;;15.75;100.00;93023.88;2580650;23;20134;-81
2023/07/16 00:24:59;;;;;;;1.73;1.10;;;;;;;15.87;100.00;93038.38;2580263;23;20087;-81
2023/07/16 00:26:08;;;;;;;3.47;1.10;;;;;;;15.66;100.00;93040.03;2581169;23;20000;-82
2023/07/16 00:27:15;;;;;;;4.60;1.10;;;;;;;15.73;100.00;93045.16;2567844;23;20000;-82
2023/07/16 00:28:20;;;;;;;3.47;1.00;;;;;;;15.68;100.00;93037.66;2557366;23;20047;-81
2023/07/16 00:29:27;;;;;;;2.35;1.30;;;;;;;15.49;100.00;93039.56;2558316;23;20084;-81
2023/07/16 00:30:32;;;;;;;1.08;0.98;;;;;;;15.59;100.00;93029.56;2557421;23;20028;-80
2023/07/16 00:31:41;;;;;;;1.52;1.20;;;;;;;15.54;100.00;93041.69;2559253;23;20012;-80
2023/07/16 00:32:44;;;;;;;4.03;1.00;;;;;;;15.52;100.00;93041.38;2570576;23;20004;-81
2023/07/16 00:33:52;;;;;;;2.25;1.30;;;;;;;15.52;100.00;93044.06;2557168;23;20000;-82
2023/07/16 00:34:55;;;;;;;1.25;1.00;;;;;;;15.55;100.00;93045.13;2558011;23;20005;-82
2023/07/16 00:36:00;;;;;;;1.67;1.00;;;;;;;15.55;100.00;93048.56;2569058;23;20004;-83
2023/07/16 00:37:07;;;;;;;1.30;1.20;;;;;;;15.69;100.00;93041.84;2581333;23;20010;-81
2023/07/16 00:38:15;;;;;;;1.05;0.95;;;;;;;15.48;100.00;93043.47;2569956;23;20088;-81
2023/07/16 00:39:21;;;;;;;1.88;1.25;;;;;;;15.56;100.00;93044.66;2557847;23;20129;-80
2023/07/16 00:40:23;;;;;;;3.28;1.30;;;;;;;15.49;100.00;93041.50;2569519;23;20012;-82
2023/07/16 00:41:26;;;;;;;2.05;1.23;;;;;;;15.40;100.00;93044.19;2568950;23;20211;-82
2023/07/16 00:42:31;;;;;;;1.63;1.10;;;;;;;15.43;100.00;93041.38;2569440;23;20001;-81
2023/07/16 00:43:34;;;;;;;2.50;1.25;;;;;;;15.39;100.00;93043.47;2556851;23;20009;-82
2023/07/16 00:44:41;;;;;;;1.85;1.10;;;;;;;15.20;100.00;93044.63;2569237;23;20001;-85
2023/07/16 00:45:47;;;;;;;1.98;1.10;;;;;;;15.11;100.00;93043.44;2568368;23;20092;-84
2023/07/16 00:46:53;;;;;;;1.95;1.10;;;;;;;15.16;100.00;93047.47;2545856;23;20009;-81
2023/07/16 00:48:01;;;;;;;15.32;1.40;;;;;;;15.08;100.00;93057.03;2558587;23;19997;-83
2023/07/16 00:49:08;;;;;;;3.25;1.25;;;;;;;15.27;100.00;93057.81;2569958;23;20447;-83
2023/07/16 00:50:13;;;;;;;2.75;1.45;;;;;;;15.38;100.00;93052.00;2557252;23;20005;-81
2023/07/16 00:51:17;;;;;;;2.97;1.27;;;;;;;15.24;100.00;93046.00;2557618;23;20020;-81
2023/07/16 00:52:23;;;;;;;3.90;1.10;;;;;;;15.13;100.00;93042.22;2568445;23;20000;-82
2023/07/16 00:53:28;;;;;;;2.58;1.33;;;;;;;15.18;100.00;93045.06;2568462;23;20001;-81
2023/07/16 00:54:33;;;;;;;2.35;1.05;;;;;;;15.23;100.00;93049.13;2545120;23;20019;-82
2023/07/16 00:55:38;;;;;;;3.67;1.20;;;;;;;15.26;100.00;93048.22;2557446;23;20536;-80
2023/07/16 00:56:46;;;;;;;4.10;1.40;;;;;;;15.35;100.00;93042.84;2580634;23;20011;-82
2023/07/16 00:57:52;;;;;;;2.80;1.25;;;;;;;15.44;100.00;93042.13;2581531;23;20476;-83
2023/07/16 00:58:59;;;;;;;2.90;1.05;;;;;;;15.31;100.00;93043.00;2569460;23;20075;-81
2023/07/16 01:00:09;;;;;;;3.20;1.30;;;;;;;15.33;100.00;93039.88;2580822;23;20007;-81
2023/07/16 01:01:13;;;;;;;5.72;1.20;;;;;;;15.34;100.00;93039.41;2568424;23;20016;-83
2023/07/16 01:02:21;;;;;;;2.00;1.02;;;;;;;15.36;100.00;93044.34;2555957;23;20036;-82
2023/07/16 01:03:28;;;;;;;1.23;1.05;;;;;;;15.27;100.00;93055.84;2557235;23;20009;-80
2023/07/16 01:04:36;;;;;;;4.75;1.00;;;;;;;15.50;100.00;93048.41;2545816;23;20020;-82
2023/07/16 01:06:02;;;;;;;2.70;1.17;;;;;;;15.51;100.00;93052.59;2558861;23;20116;-83
2023/07/16 01:07:13;;;;;;;1.90;1.25;;;;;;;15.60;100.00;93050.66;2580399;23;20107;-82
2023/07/16 01:08:33;;;;;;;2.50;1.05;;;;;;;15.62;100.00;93048.25;2568217;23;20095;-83
2023/07/16 01:09:41;;;;;;;1.60;0.90;;;;;;;15.48;100.00;93051.53;2563917;23;20012;-81
2023/07/16 01:10:42;;;;;;;2.90;1.15;;;;;;;15.46;100.00;93056.63;2581040;23;20008;-81
2023/07/16 01:11:44;;;;;;;2.13;1.27;;;;;;;15.28;100.00;93062.00;2580990;23;20000;-81
2023/07/16 01:12:56;;;;;;;2.30;1.38;;;;;;;15.34;100.00;93060.97;2568745;23;20491;-80
2023/07/16 01:14:08;;;;;;;4.00;1.30;;;;;;;15.30;100.00;93060.34;2580793;23;20067;-81
2023/07/16 01:15:11;;;;;;;3.35;1.30;;;;;;;15.38;100.00;93065.47;2556068;23;20017;-81
2023/07/16 01:16:26;;;;;;;1.58;1.38;;;;;;;15.32;100.00;93067.97;2546187;23;20471;-83
2023/07/16 01:17:34;;;;;;;1.80;1.35;;;;;;;15.30;100.00;93054.97;2568155;23;20017;-80
2023/07/16 01:18:42;;;;;;;1.52;1.40;;;;;;;15.29;100.00;93060.81;2546256;23;20009;-83
2023/07/16 01:19:50;;;;;;;4.47;1.35;;;;;;;15.36;100.00;93052.41;2546695;23;20482;-81
2023/07/16 01:20:59;;;;;;;1.90;1.13;;;;;;;15.40;100.00;93046.91;2558644;23;20000;-81
2023/07/16 01:22:29;;;;;;;2.65;1.20;;;;;;;15.37;100.00;93045.88;2557206;23;20028;-81
2023/07/16 01:23:55;;;;;;;2.25;1.10;;;;;;;15.31;100.00;93053.03;2574644;23;20007;-82
2023/07/16 01:25:22;;;;;;;3.72;1.10;;;;;;;15.33;100.00;93050.66;2567961;23;20004;-81
2023/07/16 01:27:01;;;;;;;1.65;1.23;;;;;;;15.30;100.00;93041.50;2553020;23;20266;-81
2023/07/16 01:28:18;;;;;;;1.15;1.05;;;;;;;15.75;100.00;93037.34;2568775;23;20046;-80
2023/07/16 01:29:36;;;;;;;1.10;1.00;;;;;;;15.56;100.00;93022.38;2572550;23;20320;-82
2023/07/16 01:30:47;;;;;;;1.20;1.10;;;;;;;15.42;100.00;93021.03;2559999;23;20203;-81
2023/07/16 01:31:53;;;;;;;2.13;1.30;;;;;;;15.40;100.00;93017.25;2570428;23;20076;-82
2023/07/16 01:33:03;;;;;;;1.98;1.17;;;;;;;15.40;100.00;93026.09;2556873;23;20015;-81
2023/07/16 01:34:08;;;;;;;5.18;1.30;;;;;;;15.39;100.00;93024.59;2559087;23;20058;-80
2023/07/16 01:35:12;;;;;;;1.55;1.17;;;;;;;15.33;100.00;93023.72;2556195;23;20016;-82
2023/07/16 01:36:19;;;;;;;2.00;1.23;;;;;;;15.40;100.00;93022.66;2556467;23;20009;-81
2023/07/16 01:37:24;;;;;;;4.30;1.70;;;;;;;15.36;100.00;93031.66;2558779;23;20009;-82
2023/07/16 01:38:32;;;;;;;1.85;1.10;;;;;;;15.44;100.00;93028.66;2580943;23;20004;-82
2023/07/16 01:39:39;;;;;;;2.05;1.30;;;;;;;15.46;100.00;93037.78;2581890;22;20010;-81
2023/07/16 01:40:48;;;;;;;3.28;1.20;;;;;;;15.44;100.00;93036.72;2568153;23;20096;-80
2023/07/16 01:41:52;;;;;;;1.42;1.02;;;;;;;15.47;100.00;93044.66;2547564;23;20006;-82
2023/07/16 01:42:55;;;;;;;1.30;1.20;;;;;;;15.54;100.00;93046.28;2571049;22;20048;-83
2023/07/16 01:44:03;;;;;;;3.60;1.23;;;;;;;15.68;100.00;93051.13;2568847;23;20058;-80
2023/07/16 01:45:11;;;;;;;6.35;1.23;;;;;;;15.60;100.00;93047.22;2568824;23;20020;-81
2023/07/16 01:46:18;;;;;;;1.27;1.17;;;;;;;15.54;100.00;93035.53;2557779;23;20001;-81
2023/07/16 01:47:44;;;;;;;2.28;1.45;;;;;;;15.48;100.00;93030.00;2557461;23;20114;-79
2023/07/16 01:48:52;;;;;;;1.25;1.10;;;;;;;15.42;100.00;93042.56;2566408;23;20004;-85
2023/07/16 01:49:57;;;;;;;2.35;1.35;;;;;;;15.41;100.00;93038.38;2580786;23;20074;-82
2023/07/16 01:51:05;;;;;;;1.80;1.40;;;;;;;15.29;100.00;93017.72;2557054;23;20035;-80
2023/07/16 01:52:11;;;;;;;11.88;1.50;;;;;;;15.35;100.00;93026.69;2557633;23;20494;-82
2023/07/16 01:53:17;;;;;;;3.40;1.52;;;;;;;15.41;100.00;93022.22;2558410;23;20484;-83
2023/07/16 01:54:24;;;;;;;8.23;1.63;;;;;;;15.34;100.00;93025.19;2569389;23;20423;-81
2023/07/16 01:55:30;;;;;;;4.20;1.20;;;;;;;15.33;100.00;93032.53;2568867;23;20000;-82
2023/07/16 01:56:35;;;;;;;1.55;1.30;;;;;;;15.33;100.00;93027.16;2568044;23;20036;-80
2023/07/16 01:57:38;;;;;;;2.83;1.40;;;;;;;15.23;100.00;93022.19;2556738;23;20037;-84
2023/07/16 01:58:41;;;;;;;2.05;1.25;;;;;;;15.35;100.00;93026.69;2568892;23;20011;-81
2023/07/16 01:59:46;;;;;;;1.33;1.10;;;;;;;15.34;100.00;93030.59;2568796;23;20007;-81
2023/07/16 02:00:53;;;;;;;2.28;1.40;;;;;;;15.24;100.00;93037.16;2568746;23;20004;-82
2023/07/16 02:02:01;;;;;;;5.57;1.58;;;;;;;15.24;100.00;93029.09;2556914;23;20034;-80
2023/07/16 02:03:08;;;;;;;1.30;1.13;;;;;;;15.14;100.00;93036.38;2546011;23;20471;-83
2023/07/16 02:04:14;;;;;;;2.97;1.35;;;;;;;15.16;100.00;93036.69;2545848;23;20008;-82
2023/07/16 02:05:18;;;;;;;2.00;1.60;;;;;;;15.07;100.00;93044.75;2557443;23;20088;-80
2023/07/16 02:06:24;;;;;;;1.65;1.33;;;;;;;15.17;100.00;93042.84;2555526;23;20009;-80
2023/07/16 02:07:32;;;;;;;1.40;1.30;;;;;;;15.40;100.00;93046.91;2557949;23;20076;-81
2023/07/16 02:08:40;;;;;;;8.52;1.38;;;;;;;15.36;100.00;93045.13;2557175;23;20033;-82
2023/07/16 02:09:46;;;;;;;2.17;1.88;;;;;;;15.30;100.00;93048.84;2546099;23;20005;-81
2023/07/16 02:10:53;;;;;;;6.63;1.30;;;;;;;15.39;100.00;93056.19;2545635;23;20080;-80
2023/07/16 02:12:00;;;;;;;1.50;1.40;;;;;;;15.15;100.00;93062.13;2558266;23;20013;-83
2023/07/16 02:13:07;;;;;;;2.22;1.10;;;;;;;15.10;100.00;93068.09;2556760;23;20001;-81
2023/07/16 02:14:15;;;;;;;1.20;1.10;;;;;;;15.42;100.00;93074.88;2558005;23;20000;-83
2023/07/16 02:15:19;;;;;;;2.60;1.20;;;;;;;15.18;100.00;93073.94;2557194;23;20084;-81
2023/07/16 02:16:27;;;;;;;1.35;1.25;;;;;;;15.20;100.00;93069.63;2570796;22;20108;-80
2023/07/16 02:17:31;;;;;;;2.58;1.25;;;;;;;15.09;100.00;93061.22;2583124;23;20008;-79
2023/07/16 02:18:38;;;;;;;3.13;1.52;;;;;;;15.02;100.00;93058.81;2571962;23;20071;-80
2023/07/16 02:19:44;;;;;;;3.25;1.30;;;;;;;15.04;100.00;93062.53;2558094;23;20089;-81
2023/07/16 02:22:06;;;;;;;2.38;1.30;;;;;;;14.81;100.00;93063.84;2136696;27;20537;-77
2023/07/16 02:23:13;;;;;;;1.88;1.30;;;;;;;14.73;100.00;93061.84;2120119;28;20035;-80
2023/07/16 02:24:21;;;;;;;4.40;1.58;;;;;;;14.70;100.00;93054.66;2107965;28;20038;-80
2023/07/16 02:25:28;;;;;;;3.90;1.60;;;;;;;14.60;100.00;93041.19;2114216;28;20034;-80
2023/07/16 02:26:33;;;;;;;2.28;1.50;;;;;;;14.55;100.00;93043.72;2120447;28;20044;-78
2023/07/16 02:27:42;;;;;;;1.92;1.73;;;;;;;14.52;100.00;93023.81;2119525;28;20061;-80
2023/07/16 02:28:45;;;;;;;3.95;1.50;;;;;;;14.59;100.00;93028.94;2112639;28;20125;-81
2023/07/16 02:29:52;;;;;;;1.52;1.42;;;;;;;14.48;100.00;93036.66;2108849;28;20081;-80
2023/07/16 02:31:01;;;;;;;3.58;1.48;;;;;;;14.46;100.00;93014.81;2103863;28;20031;-80
2023/07/16 02:32:07;;;;;;;3.55;1.60;;;;;;;14.37;100.00;93025.53;2105693;28;20017;-80
2023/07/16 02:33:11;;;;;;;1.95;1.55;;;;;;;14.57;100.00;93028.63;2118105;28;20023;-79
2023/07/16 02:34:14;;;;;;;2.35;1.70;;;;;;;14.35;100.00;93025.19;2120112;27;20031;-79
2023/07/16 02:35:24;;;;;;;1.60;1.50;;;;;;;14.38;100.00;93043.16;2111379;28;20031;-80
2023/07/16 02:36:32;;;;;;;1.83;1.73;;;;;;;14.43;100.00;93050.66;2112243;28;20027;-81
2023/07/16 02:37:37;;;;;;;3.70;1.88;;;;;;;14.34;100.00;93056.72;2119329;28;20028;-78
2023/07/16 02:38:45;;;;;;;1.77;1.55;;;;;;;14.66;100.00;93054.78;2103900;28;20480;-80
2023/07/16 02:39:48;;;;;;;2.22;1.40;;;;;;;14.55;100.00;93067.91;2101109;28;20032;-79
2023/07/16 02:40:54;;;;;;;3.67;1.52;;;;;;;14.56;100.00;93062.09;2103118;28;20040;-78
2023/07/16 02:41:57;;;;;;;1.60;1.50;;;;;;;14.29;100.00;93061.94;2108757;28;20024;-82
2023/07/16 02:43:04;;;;;;;1.83;1.63;;;;;;;14.34;100.00;93067.47;2103524;28;20020;-79
2023/07/16 02:44:10;;;;;;;8.77;1.83;;;;;;;14.26;100.00;93065.50;2111300;28;20541;-80
2023/07/16 02:45:18;;;;;;;6.80;1.60;;;;;;;14.25;100.00;93080.13;2095708;28;20488;-79
2023/07/16 02:46:24;;;;;;;3.00;1.80;;;;;;;14.25;100.00;93088.19;2108762;27;20032;-78
2023/07/16 02:47:32;;;;;;;1.67;1.48;;;;;;;14.26;100.00;93092.38;2120082;28;20063;-80
2023/07/16 02:48:36;;;;;;;1.48;1.38;;;;;;;14.26;100.00;93089.69;2110844;28;20031;-79
2023/07/16 02:49:45;;;;;;;2.90;2.13;;;;;;;14.29;100.00;93096.88;2109579;28;20055;-78
2023/07/16 02:50:53;;;;;;;5.07;1.85;;;;;;;14.29;100.00;93100.31;2112570;28;20019;-78
2023/07/16 02:51:58;;;;;;;2.00;1.73;;;;;;;14.37;100.00;93092.75;2111238;28;20050;-80
2023/07/16 02:53:05;;;;;;;1.80;1.58;;;;;;;14.40;100.00;93107.25;2112001;28;20027;-80
2023/07/16 02:54:10;;;;;;;3.28;1.73;;;;;;;14.43;100.00;93109.81;2110401;28;20019;-82
2023/07/16 02:55:17;;;;;;;4.63;1.58;;;;;;;14.30;100.00;93103.75;2103656;28;20025;-78
2023/07/16 02:56:24;;;;;;;3.10;1.55;;;;;;;14.23;100.00;93095.97;2110344;28;20525;-78
2023/07/16 02:57:30;;;;;;;2.97;1.58;;;;;;;14.13;100.00;93095.13;2114965;28;20034;-79
2023/07/16 02:58:36;;;;;;;3.80;1.90;;;;;;;14.21;100.00;93101.00;2121723;28;20023;-80
2023/07/16 02:59:40;;;;;;;3.00;2.00;;;;;;;14.20;100.00;93105.66;2121953;27;20284;-79
2023/07/16 03:00:48;;;;;;;1.70;1.60;;;;;;;14.36;100.00;93107.41;2112730;28;20342;-80
2023/07/16 03:01:55;;;;;;;2.38;1.63;;;;;;;14.33;100.00;93095.56;2097701;28;20029;-80
2023/07/16 03:03:06;;;;;;;2.83;1.88;;;;;;;14.29;100.00;93102.25;2097963;28;20079;-81
2023/07/16 03:04:15;;;;;;;2.05;1.50;;;;;;;14.20;100.00;93084.13;2098241;28;20115;-79
2023/07/16 03:05:20;;;;;;;3.67;1.90;;;;;;;14.10;100.00;93096.03;2101676;28;20099;-81
2023/07/16 03:06:26;;;;;;;2.65;1.60;;;;;;;14.22;100.00;93097.88;2104437;28;20028;-80
2023/07/16 03:07:32;;;;;;;3.13;2.10;;;;;;;14.31;100.00;93114.09;2111865;28;20050;-80
2023/07/16 03:08:39;;;;;;;3.75;2.05;;;;;;;14.19;100.00;93117.59;2119686;28;20172;-79
2023/07/16 03:09:45;;;;;;;4.18;2.22;;;;;;;14.17;100.00;93122.66;2111590;28;20480;-81
2023/07/16 03:10:50;;;;;;;3.03;1.95;;;;;;;14.20;100.00;93129.09;2109658;28;20027;-79
2023/07/16 03:11:54;;;;;;;1.55;1.45;;;;;;;14.13;100.00;93140.09;2103340;28;20094;-79
2023/07/16 03:13:03;;;;;;;2.15;1.90;;;;;;;14.17;100.00;93138.78;2100914;28;20111;-79
2023/07/16 03:14:11;;;;;;;4.10;1.73;;;;;;;14.17;100.00;93143.41;2105635;28;20028;-80
2023/07/16 03:15:15;;;;;;;2.30;1.70;;;;;;;14.18;100.00;93144.91;2119900;28;20055;-82
2023/07/16 03:16:21;;;;;;;2.05;1.80;;;;;;;14.19;100.00;93146.41;2112159;28;20024;-78
2023/07/16 03:17:27;;;;;;;1.88;1.65;;;;;;;14.26;100.00;93138.84;2115862;28;20030;-80
2023/07/16 03:18:34;;;;;;;3.30;1.45;;;;;;;14.39;100.00;93144.16;2111681;28;20032;-79
2023/07/16 03:19:41;;;;;;;2.00;1.45;;;;;;;14.42;100.00;93148.66;2111916;28;20028;-79
2023/07/16 03:20:47;;;;;;;2.42;1.67;;;;;;;14.32;100.00;93139.78;2111529;28;20016;-78
2023/07/16 03:21:54;;;;;;;4.10;1.63;;;;;;;14.30;100.00;93136.03;2107765;28;20050;-79
2023/07/16 03:23:00;;;;;;;6.50;2.00;;;;;;;14.23;100.00;93126.28;2112201;28;20026;-80
2023/07/16 03:24:04;;;;;;;5.10;2.08;;;;;;;14.29;100.00;93131.84;2111806;28;20022;-79
2023/07/16 03:25:07;;;;;;;5.03;1.77;;;;;;;14.32;100.00;93118.28;2120133;28;20097;-78
2023/07/16 03:26:15;;;;;;;7.38;1.58;;;;;;;14.29;100.00;93111.06;2110351;28;20434;-79
2023/07/16 03:27:23;;;;;;;6.32;1.95;;;;;;;14.31;100.00;93100.66;2095850;28;20496;-80
2023/07/16 03:28:29;;;;;;;8.05;2.25;;;;;;;14.31;100.00;93086.44;2103616;28;20020;-80
2023/07/16 03:29:38;;;;;;;3.38;2.00;;;;;;;14.32;100.00;93077.19;2097580;28;20029;-80
2023/07/16 03:30:46;;;;;;;4.03;2.05;;;;;;;14.26;100.00;93062.81;2104380;28;20071;-82
2023/07/16 03:31:55;;;;;;;5.95;1.98;;;;;;;14.36;100.00;93072.44;2107832;28;20027;-81
2023/07/16 03:33:03;;;;;;;7.43;2.15;;;;;;;14.36;100.00;93091.25;2099355;28;20433;-82
2023/07/16 03:34:09;;;;;;;4.28;1.90;;;;;;;14.35;100.00;93103.19;2097532;28;20627;-79
2023/07/16 03:35:14;;;;;;;2.85;2.08;;;;;;;14.17;100.00;93113.84;2097093;28;20127;-80
2023/07/16 03:36:20;;;;;;;13.50;11.60;;;;;;;14.23;100.00;93120.16;2086130;28;20033;-79
2023/07/16 03:37:23;;;;;;;6.07;4.32;;;;;;;14.28;100.00;93127.66;2102234;28;20031;-80
2023/07/16 03:38:27;;;;;;;3.65;2.70;;;;;;;14.33;100.00;93135.16;2105503;28;20020;-80
2023/07/16 03:39:32;;;;;;;5.32;2.15;;;;;;;14.31;100.00;93134.81;2095616;28;20078;-79
2023/07/16 03:40:40;;;;;;;4.78;2.22;;;;;;;14.30;100.00;93139.47;2112279;28;20027;-79
2023/07/16 03:41:45;;;;;;;3.35;1.80;;;;;;;14.18;100.00;93134.16;2105309;28;20395;-80
2023/07/16 03:42:49;;;;;;;6.95;2.30;;;;;;;14.22;100.00;93129.41;2097690;28;20036;-81
2023/07/16 03:43:55;;;;;;;4.05;1.85;;;;;;;14.33;100.00;93124.41;2112535;28;20032;-79
2023/07/16 03:44:58;;;;;;;3.35;2.40;;;;;;;14.27;100.00;93129.59;2113773;28;20486;-78
2023/07/16 03:46:07;;;;;;;3.35;2.08;;;;;;;14.14;100.00;93136.22;2113280;28;20090;-79
2023/07/16 03:47:13;;;;;;;8.48;2.10;;;;;;;14.23;100.00;93138.97;2113951;28;20027;-79
2023/07/16 03:48:17;;;;;;;4.10;1.98;;;;;;;14.18;100.00;93140.28;2109953;28;20054;-80
2023/07/16 03:49:23;;;;;;;6.30;2.20;;;;;;;14.17;100.00;93140.72;2105170;28;20035;-79
2023/07/16 03:50:29;;;;;;;2.55;1.75;;;;;;;14.10;100.00;93150.53;2103908;28;20449;-79
2023/07/16 03:51:37;;;;;;;8.65;2.15;;;;;;;14.17;100.00;93152.22;2112120;28;20019;-79
2023/07/16 03:52:46;;;;;;;6.45;1.90;;;;;;;14.14;100.00;93153.13;2104661;28;20110;-77
2023/07/16 03:53:54;;;;;;;5.22;1.90;;;;;;;14.01;100.00;93157.78;2106212;28;20058;-80
2023/07/16 03:55:02;;;;;;;3.40;1.92;;;;;;;13.98;100.00;93162.09;2113825;28;20500;-79
2023/07/16 03:56:10;;;;;;;3.50;1.90;;;;;;;13.96;100.00;93164.47;2113243;28;20032;-78
2023/07/16 03:57:19;;;;;;;7.45;2.22;;;;;;;13.99;100.00;93166.25;2110848;28;20043;-80
2023/07/16 03:58:20;;;;;;;2.78;2.00;;;;;;;14.00;100.00;93162.38;2102294;28;20030;-78
2023/07/16 03:59:22;;;;;;;5.20;2.00;;;;;;;13.89;100.00;93167.38;2096551;28;20039;-79
2023/07/16 04:00:23;;;;;;;5.13;2.20;;;;;;;14.02;100.00;93175.41;2102316;28;20050;-79
2023/07/16 04:01:24;;;;;;;5.68;2.35;;;;;;;13.91;100.00;93170.38;2098053;28;20032;-78
2023/07/16 04:02:25;;;;;;;5.38;1.80;;;;;;;13.81;100.00;93161.50;2093897;28;20534;-80
2023/07/16 04:03:26;;;;;;;5.18;2.00;;;;;;;13.80;100.00;93167.31;2105300;28;20031;-81
2023/07/16 04:04:27;;;;;;;3.90;2.03;;;;;;;13.80;100.00;93167.31;2105054;28;20050;-81
2023/07/16 04:05:28;;;;;;;6.80;1.75;;;;;;;13.82;100.00;93168.38;2102721;28;20137;-78
2023/07/16 04:06:29;;;;;;;5.43;1.80;;;;;;;13.81;100.00;93174.94;2111739;28;20466;-82
2023/07/16 04:07:30;;;;;;;8.25;2.65;;;;;;;13.73;100.00;93187.09;2102058;28;20042;-79
2023/07/16 04:08:31;;;;;;;4.35;2.00;;;;;;;13.76;100.00;93186.22;2101187;28;20024;-79
2023/07/16 04:09:32;;;;;;;4.57;2.03;;;;;;;13.68;100.00;93187.66;2103397;28;20040;-80
2023/07/16 04:10:33;;;;;;;4.43;1.90;;;;;;;13.75;100.00;93179.38;2113044;28;20031;-78
2023/07/16 04:11:34;;;;;;;3.90;1.65;;;;;;;13.58;100.00;93184.13;2105389;28;20028;-81
2023/07/16 04:12:35;;;;;;;4.28;1.95;;;;;;;13.57;100.00;93193.38;2110195;28;20198;-80
2023/07/16 04:13:36;;;;;;;10.32;2.20;;;;;;;13.69;100.00;93191.81;2104595;28;20418;-79
2023/07/16 04:14:36;;;;;;;3.90;1.90;;;;;;;13.58;100.00;93191.44;2105335;28;20524;-81
2023/07/16 04:15:37;;;;;;;4.38;2.05;;;;;;;13.75;100.00;93187.41;2113559;28;20030;-80
2023/07/16 04:16:38;;;;;;;5.10;2.25;;;;;;;13.81;100.00;93188.38;2113438;28;20105;-78
2023/07/16 04:17:39;;;;;;;5.00;2.25;;;;;;;13.70;100.00;93203.34;2110323;28;20099;-80
2023/07/16 04:18:40;;;;;;;5.43;2.05;;;;;;;13.73;100.00;93202.47;2104791;28;20043;-79
2023/07/16 04:19:44;;;;;;;5.90;2.40;;;;;;;13.67;100.00;93199.56;2105539;28;20043;-79
2023/07/16 04:20:45;;;;;;;3.35;1.88;;;;;;;13.63;100.00;93207.00;2105105;28;20042;-77
2023/07/16 04:21:46;;;;;;;3.97;2.15;;;;;;;13.63;100.00;93203.56;2105089;28;20044;-79
2023/07/16 04:22:47;;;;;;;7.22;1.90;;;;;;;13.53;100.00;93208.09;2110250;28;20515;-79
2023/07/16 04:23:48;;;;;;;6.55;2.22;;;;;;;13.51;100.00;93211.19;2110965;28;20024;-80
2023/07/16 04:24:49;;;;;;;6.65;2.22;;;;;;;13.54;100.00;93218.41;2101703;28;20101;-79
2023/07/16 04:25:54;;;;;;;4.22;1.90;;;;;;;13.51;100.00;93216.56;2112986;28;20015;-77
2023/07/16 04:26:55;;;;;;;7.47;2.03;;;;;;;13.62;100.00;93229.69;2112979;28;20034;-80
2023/07/16 04:27:56;;;;;;;4.97;2.17;;;;;;;13.61;100.00;93228.19;2113763;28;20023;-80
2023/07/16 04:28:57;;;;;;;6.40;2.00;;;;;;;13.57;100.00;93227.53;2114016;28;20023;-78
2023/07/16 04:29:59;;;;;;;4.88;2.22;;;;;;;13.60;100.00;93219.34;2114373;28;20024;-80
2023/07/16 04:31:00;;;;;;;4.40;2.28;;;;;;;13.58;100.00;93224.41;2113052;28;20035;-79
2023/07/16 04:32:02;;;;;;;12.10;2.28;;;;;;;13.53;100.00;93224.22;2095511;28;20077;-78
2023/07/16 04:33:04;;;;;;;3.45;2.50;;;;;;;13.64;100.00;93216.56;2091733;28;20028;-79
2023/07/16 04:34:05;;;;;;;5.72;2.28;;;;;;;13.64;100.00;93219.25;2112753;28;20110;-80
2023/07/16 04:35:06;;;;;;;8.80;2.42;;;;;;;13.68;100.00;93214.50;2104944;28;20430;-79
2023/07/16 04:36:08;;;;;;;5.07;2.30;;;;;;;13.66;100.00;93214.19;2101524;28;20024;-81
2023/07/16 04:37:08;;;;;;;4.55;2.13;;;;;;;13.66;100.00;93219.56;2104503;28;20034;-79
2023/07/16 04:38:09;;;;;;;4.78;2.17;;;;;;;13.69;100.00;93218.69;2104941;28;20079;-79
2023/07/16 04:39:10;;;;;;;6.88;1.98;;;;;;;13.63;100.00;93222.38;2108972;28;20028;-79
2023/07/16 04:40:12;;;;;;;10.90;2.33;;;;;;;13.64;100.00;93227.28;2113627;28;20891;-78
2023/07/16 04:41:13;;;;;;;6.50;2.10;;;;;;;13.53;100.00;93230.31;2104416;28;20036;-80
2023/07/16 04:42:16;;;;;;;4.40;2.75;;;;;;;13.58;100.00;93237.84;2102508;28;20435;-80
2023/07/16 04:43:17;;;;;;;6.22;2.00;;;;;;;13.40;100.00;93234.97;2105203;28;20024;-82
2023/07/16 04:44:18;;;;;;;10.82;2.22;;;;;;;13.41;100.00;93227.66;2111909;28;20078;-79
2023/07/16 04:45:19;;;;;;;4.72;1.70;;;;;;;13.53;100.00;93234.94;2113567;28;20682;-80
2023/07/16 04:46:20;;;;;;;5.30;2.03;;;;;;;13.50;100.00;93228.50;2111106;28;20055;-78
2023/07/16 04:47:21;;;;;;;7.20;2.67;;;;;;;13.53;100.00;93222.28;2113742;28;20024;-81
2023/07/16 04:48:22;;;;;;;5.47;2.15;;;;;;;13.70;100.00;93220.22;2113337;28;20055;-80
2023/07/16 04:49:23;;;;;;;5.55;2.50;;;;;;;13.58;100.00;93224.41;2098596;28;20067;-79
2023/07/16 04:50:24;;;;;;;8.52;2.42;;;;;;;13.51;100.00;93213.88;2102133;28;20515;-78
2023/07/16 04:51:25;;;;;;;4.00;2.08;;;;;;;13.52;100.00;93211.94;2105027;28;20405;-78
2023/07/16 04:52:26;;;;;;;8.27;2.30;;;;;;;13.43;100.00;93215.28;2111456;28;20181;-81
2023/07/16 04:53:27;;;;;;;5.25;2.40;;;;;;;13.53;100.00;93211.53;2113569;28;20495;-81
2023/07/16 04:54:28;;;;;;;5.72;2.40;;;;;;;13.59;100.00;93219.78;2112921;28;20035;-80
2023/07/16 04:55:29;;;;;;;5.90;2.40;;;;;;;13.74;100.00;93214.69;2113728;28;20115;-77
2023/07/16 04:56:30;;;;;;;4.38;2.10;;;;;;;13.63;100.00;93223.13;2114106;28;20129;-79
2023/07/16 04:57:33;;;;;;;4.57;2.20;;;;;;;13.44;100.00;93213.38;2104773;28;20043;-81
2023/07/16 04:58:34;;;;;;;6.57;2.50;;;;;;;13.36;100.00;93218.19;2089086;28;20123;-77
2023/07/16 04:59:35;;;;;;;5.88;2.40;;;;;;;13.33;100.00;93222.50;2104506;28;20031;-80
2023/07/16 05:00:36;;;;;;;5.40;1.98;;;;;;;13.32;100.00;93221.00;2111712;28;20525;-79
2023/07/16 05:01:37;;;;;;;10.48;2.25;;;;;;;13.51;100.00;93215.81;2113155;28;20035;-79
2023/07/16 05:02:38;;;;;;;6.22;2.55;;;;;;;13.26;100.00;93213.91;2113658;28;20024;-80
2023/07/16 05:03:39;;;;;;;10.13;2.80;;;;;;;13.17;100.00;93211.06;2113334;28;20031;-80
2023/07/16 05:04:40;;;;;;;5.72;2.00;;;;;;;13.19;100.00;93198.00;2108726;28;20141;-79
2023/07/16 05:05:41;;;;;;;7.80;2.20;;;;;;;13.18;100.00;93193.81;2092813;28;20132;-80
2023/07/16 05:06:42;;;;;;;11.25;2.63;;;;;;;13.26;100.00;93206.63;2092200;28;20495;-79